createdAt,value
2017-05-27T00:00:09.012Z,99.99
2017-05-27T00:10:09.055Z,99.99
2017-05-27T00:20:09.011Z,99.99
2017-05-27T00:30:09.069Z,99.99
2017-05-27T00:40:09.051Z,99.99
2017-05-27T00:50:09.005Z,99.99
2017-05-27T01:00:09.059Z,99.99
2017-05-27T01:10:09.022Z,99.99
2017-05-27T01:20:08.985Z,99.99
2017-05-27T01:30:09.064Z,99.99
2017-05-27T01:40:08.996Z,99.99
2017-05-27T01:50:09.073Z,99.99
2017-05-27T02:00:09.040Z,99.99
2017-05-27T02:10:09.001Z,99.99
2017-05-27T02:20:09.058Z,99.99
2017-05-27T02:30:09.012Z,99.99
2017-05-27T02:40:08.981Z,99.99
2017-05-27T02:50:09.036Z,99.99
2017-05-27T03:00:08.991Z,99.99
2017-05-27T03:10:09.084Z,99.99
2017-05-27T03:20:09.035Z,99.99
2017-05-27T03:30:08.981Z,99.99
2017-05-27T03:40:09.046Z,99.99
2017-05-27T03:50:09.016Z,99.99
2017-05-27T04:00:08.978Z,99.99
2017-05-27T04:10:09.068Z,99.99
2017-05-27T04:20:08.988Z,99.99
2017-05-27T04:30:09.063Z,99.99
2017-05-27T04:40:09.051Z,99.99
2017-05-27T04:50:08.978Z,99.99
2017-05-27T05:00:09.054Z,99.99
2017-05-27T05:10:09.007Z,99.99
2017-05-27T05:20:08.947Z,99.99
2017-05-27T05:30:09.029Z,99.99
2017-05-27T05:40:09.001Z,99.99
2017-05-27T05:50:09.064Z,99.99
2017-05-27T06:00:09.017Z,99.99
2017-05-27T06:10:08.982Z,88.04
2017-05-27T06:20:08.947Z,59.35
2017-05-27T06:30:08.992Z,47.98
2017-05-27T06:40:08.975Z,43.84
2017-05-27T06:50:09.026Z,40.68
2017-05-27T07:00:08.971Z,35.95
2017-05-27T07:10:08.976Z,34.86
2017-05-27T07:20:09.013Z,33.16
2017-05-27T07:30:08.988Z,31.68
2017-05-27T07:40:08.981Z,31.32
2017-05-27T07:50:08.983Z,28.79
2017-05-27T08:00:08.986Z,28.25
2017-05-27T08:10:08.989Z,27.19
2017-05-27T08:20:09.005Z,27.8
2017-05-27T08:30:09.022Z,27.19
2017-05-27T08:40:08.999Z,26.09
2017-05-27T08:50:09.003Z,25.43
2017-05-27T09:00:09.023Z,26.22
2017-05-27T09:10:09.022Z,32.89
2017-05-27T09:20:09.045Z,41.33
2017-05-27T09:30:09.016Z,47.18
2017-05-27T09:40:09.021Z,49.49
2017-05-27T09:50:09.024Z,50.36
2017-05-27T10:00:09.023Z,50.63
2017-05-27T10:10:09.032Z,51.41
2017-05-27T10:20:09.028Z,51.48
2017-05-27T10:30:09.019Z,50.21
2017-05-27T10:40:09.062Z,49.37
2017-05-27T10:50:09.034Z,49.54
2017-05-27T11:00:09.033Z,51.87
2017-05-27T11:10:09.045Z,51.09
2017-05-27T11:20:09.044Z,50.6
2017-05-27T11:30:09.056Z,50.99
2017-05-27T11:40:09.040Z,50.9
2017-05-27T11:50:09.040Z,49.73
2017-05-27T12:00:09.042Z,47.49
2017-05-27T12:10:09.047Z,46.71
2017-05-27T12:20:09.056Z,47.61
2017-05-27T12:30:09.052Z,46.66
2017-05-27T12:40:09.043Z,45.68
2017-05-27T12:50:09.048Z,44.73
2017-05-27T13:00:09.048Z,45.22
2017-05-27T13:10:09.072Z,43.85
2017-05-27T13:20:09.055Z,44.24
2017-05-27T13:30:09.064Z,45.12
2017-05-27T13:40:09.065Z,44.46
2017-05-27T13:50:09.058Z,43.02
2017-05-27T14:00:09.055Z,42.54
2017-05-27T14:10:09.067Z,43.71
2017-05-27T14:20:09.086Z,42.46
2017-05-27T14:30:09.077Z,42.05
2017-05-27T14:40:09.075Z,42.63
2017-05-27T14:50:09.088Z,42.65
2017-05-27T15:00:09.082Z,42.55
2017-05-27T15:10:09.098Z,42.55
2017-05-27T15:20:09.095Z,43.14
2017-05-27T15:30:09.104Z,43.14
2017-05-27T15:40:09.114Z,42.94
2017-05-27T15:50:09.106Z,43.73
2017-05-27T16:00:09.099Z,43.73
2017-05-27T16:10:09.101Z,44.6
2017-05-27T16:20:09.105Z,45.29
2017-05-27T16:30:09.104Z,45.26
2017-05-27T16:40:09.113Z,45.36
2017-05-27T16:50:09.121Z,45.95
2017-05-27T17:00:09.131Z,45.95
2017-05-27T17:10:09.112Z,47.68
2017-05-27T17:20:09.120Z,47.29
2017-05-27T17:30:09.139Z,47.95
2017-05-27T17:40:09.105Z,49.12
2017-05-27T17:50:09.126Z,49
2017-05-27T18:00:09.127Z,50.43
2017-05-27T18:10:09.130Z,51.12
2017-05-27T18:20:09.141Z,51.58
2017-05-27T18:30:09.131Z,53.3
2017-05-27T18:40:09.136Z,55.74
2017-05-27T18:50:09.213Z,57.14
2017-05-27T19:00:09.138Z,58.86
2017-05-27T19:10:09.140Z,59.51
2017-05-27T19:20:09.155Z,61.52
2017-05-27T19:30:09.144Z,63.78
2017-05-27T19:40:09.155Z,64.89
2017-05-27T19:50:09.140Z,67.27
2017-05-27T20:00:09.149Z,68.49
2017-05-27T20:10:09.141Z,70.65
2017-05-27T20:20:09.145Z,72.45
2017-05-27T20:30:09.140Z,73
2017-05-27T20:40:09.155Z,73.86
2017-05-27T20:50:09.239Z,74.6
2017-05-27T21:00:09.165Z,74.12
2017-05-27T21:10:09.162Z,72.09
2017-05-27T21:20:09.146Z,72.19
2017-05-27T21:30:09.151Z,71.7
2017-05-27T21:40:09.153Z,71.42
2017-05-27T21:50:09.156Z,70.94
2017-05-27T22:00:09.169Z,71.48
2017-05-27T22:10:09.169Z,72.54
2017-05-27T22:20:09.145Z,72.21
2017-05-27T22:30:09.473Z,74.14
2017-05-27T22:40:09.177Z,75.1
2017-05-27T22:50:09.490Z,76.03
2017-05-27T23:00:09.164Z,76.32
2017-05-27T23:10:09.165Z,77
2017-05-27T23:20:09.173Z,77.63
2017-05-27T23:30:09.171Z,80.14
2017-05-27T23:40:09.180Z,81.63
2017-05-27T23:50:09.163Z,83.66
